Time;durP1;ratioP1;P1;durP2;ratioP2;P2;SDS_P1;SDS_P2;PMS_P1;PMS_P2;Temp;Humidity;BMP_temperature;BMP_pressure;BME280_temperature;BME280_humidity;BME280_pressure;Samples;Min_cycle;Max_cycle;Signal;HPM_P1;HPM_P2
2022/05/02 00:01:24;;;;;;;;;;;11.10;76.00;;;;;;5072872;28;19916;-68
2022/05/02 00:03:49;;;;;;;;;;;11.00;76.10;;;;;;5080032;28;19912;-68
2022/05/02 00:06:15;;;;;;;;;;;11.00;76.10;;;;;;5076022;28;19915;-69
2022/05/02 00:08:40;;;;;;;;;;;11.00;76.20;;;;;;5078583;28;19916;-68
2022/05/02 00:11:06;;;;;;;;;;;11.00;76.20;;;;;;5074825;28;19913;-69
2022/05/02 00:13:32;;;;;;;;;;;11.00;76.30;;;;;;5071219;28;20276;-68
2022/05/02 00:15:58;;;;;;;;;;;11.00;76.10;;;;;;5079882;28;19912;-69
2022/05/02 00:18:23;;;;;;;;;;;10.90;76.00;;;;;;5086399;28;19919;-69
2022/05/02 00:20:49;;;;;;;;;;;10.90;76.10;;;;;;5074115;28;19927;-69
2022/05/02 00:23:14;;;;;;;;;;;10.90;76.30;;;;;;5073048;28;19916;-69
2022/05/02 00:25:40;;;;;;;;;;;10.90;76.30;;;;;;5077623;28;19913;-68
2022/05/02 00:28:06;;;;;;;;;;;10.90;76.30;;;;;;5073053;28;20551;-68
2022/05/02 00:30:31;;;;;;;;;;;10.90;76.10;;;;;;5081386;28;19987;-69
2022/05/02 00:32:57;;;;;;;;;;;10.80;76.30;;;;;;5079715;28;19916;-69
2022/05/02 00:35:23;;;;;;;;;;;10.80;76.30;;;;;;5083459;28;19940;-68
2022/05/02 00:37:48;;;;;;;;;;;10.80;76.30;;;;;;5077234;28;20374;-69
2022/05/02 00:40:15;;;;;;;;;;;10.80;76.40;;;;;;5076279;28;19912;-68
2022/05/02 00:42:44;;;;;;;;;;;10.80;76.30;;;;;;5070731;28;20011;-69
2022/05/02 00:45:10;;;;;;;;;;;10.70;76.30;;;;;;5072719;28;19909;-68
2022/05/02 00:47:36;;;;;;;;;;;10.70;76.30;;;;;;5076296;28;19961;-68
2022/05/02 00:50:06;;;;;;;;;;;10.70;76.40;;;;;;5072344;28;20531;-69
2022/05/02 00:52:31;;;;;;;;;;;10.70;76.40;;;;;;5074026;28;19920;-69
2022/05/02 00:54:58;;;;;;;;;;;10.70;76.40;;;;;;5072631;28;19916;-68
2022/05/02 00:57:24;;;;;;;;;;;10.70;76.40;;;;;;5075396;28;19920;-68
2022/05/02 00:59:50;;;;;;;;;;;10.70;76.50;;;;;;5070270;28;19917;-68
2022/05/02 01:02:15;;;;;;;;;;;10.60;76.40;;;;;;5081346;28;19913;-68
2022/05/02 01:04:42;;;;;;;;;;;10.60;76.50;;;;;;5078788;28;19951;-68
2022/05/02 01:07:19;;;;;;;;;;;10.60;76.50;;;;;;5083013;28;19935;-68
2022/05/02 01:09:45;;;;;;;;;;;10.60;76.50;;;;;;5072111;28;20360;-69
2022/05/02 01:12:19;;;;;;;;;;;10.60;76.60;;;;;;5081029;28;19916;-68
2022/05/02 01:14:46;;;;;;;;;;;10.50;76.60;;;;;;5075925;28;20429;-68
2022/05/02 01:17:11;;;;;;;;;;;10.50;76.60;;;;;;5081944;28;19988;-68
2022/05/02 01:19:37;;;;;;;;;;;10.50;76.60;;;;;;5074945;28;20523;-68
2022/05/02 01:22:04;;;;;;;;;;;10.50;76.70;;;;;;5084462;28;20669;-68
2022/05/02 01:24:37;;;;;;;;;;;10.50;76.70;;;;;;5074359;28;20300;-69
2022/05/02 01:27:02;;;;;;;;;;;10.50;76.70;;;;;;5077761;28;19923;-69
2022/05/02 01:29:29;;;;;;;;;;;10.50;76.70;;;;;;5073603;28;20664;-69
2022/05/02 01:31:55;;;;;;;;;;;10.40;76.80;;;;;;5076931;28;19912;-68
2022/05/02 01:34:21;;;;;;;;;;;10.40;76.70;;;;;;5072735;28;19919;-68
2022/05/02 01:36:46;;;;;;;;;;;10.40;76.80;;;;;;5073678;28;19916;-69
2022/05/02 01:39:12;;;;;;;;;;;10.40;76.80;;;;;;5080266;28;20540;-69
2022/05/02 01:41:37;;;;;;;;;;;10.40;76.90;;;;;;5077166;28;20019;-68
2022/05/02 01:44:03;;;;;;;;;;;10.40;76.90;;;;;;5071771;28;19986;-68
2022/05/02 01:46:28;;;;;;;;;;;10.30;76.80;;;;;;5074759;28;19920;-68
2022/05/02 01:48:54;;;;;;;;;;;10.30;76.90;;;;;;5082222;28;20047;-68
2022/05/02 01:51:20;;;;;;;;;;;10.30;76.90;;;;;;5076718;28;19916;-69
2022/05/02 01:53:46;;;;;;;;;;;10.30;77.00;;;;;;5075693;28;20602;-68
2022/05/02 01:56:11;;;;;;;;;;;10.30;76.90;;;;;;5070199;28;19924;-68
2022/05/02 01:58:36;;;;;;;;;;;10.30;77.10;;;;;;5087800;28;20407;-68
2022/05/02 02:01:02;;;;;;;;;;;10.30;76.90;;;;;;5076617;28;19934;-68
2022/05/02 02:03:27;;;;;;;;;;;10.30;77.10;;;;;;5084811;28;20011;-68
2022/05/02 02:05:53;;;;;;;;;;;10.20;76.90;;;;;;5082164;28;20272;-68
2022/05/02 02:08:21;;;;;;;;;;;10.20;77.00;;;;;;5080399;28;20016;-69
2022/05/02 02:10:47;;;;;;;;;;;10.20;77.10;;;;;;5075687;28;20421;-68
2022/05/02 02:13:13;;;;;;;;;;;10.20;77.10;;;;;;5084945;28;19920;-68
2022/05/02 02:15:39;;;;;;;;;;;10.20;77.10;;;;;;5079583;28;19917;-68
2022/05/02 02:18:04;;;;;;;;;;;10.20;77.10;;;;;;5077392;28;19920;-69
2022/05/02 02:20:30;;;;;;;;;;;10.20;77.20;;;;;;5075480;28;20004;-69
2022/05/02 02:22:56;;;;;;;;;;;10.20;77.20;;;;;;5083246;28;19999;-68
2022/05/02 02:25:21;;;;;;;;;;;10.20;77.20;;;;;;5087753;28;19912;-68
2022/05/02 02:27:47;;;;;;;;;;;10.20;77.20;;;;;;5081643;28;20010;-68
2022/05/02 02:30:14;;;;;;;;;;;10.20;77.20;;;;;;5084550;28;20055;-68
2022/05/02 02:32:41;;;;;;;;;;;10.10;77.20;;;;;;5073159;28;20011;-68
2022/05/02 02:35:07;;;;;;;;;;;10.20;77.20;;;;;;5085300;28;19938;-68
2022/05/02 02:37:32;;;;;;;;;;;10.10;77.10;;;;;;5082023;28;19980;-68
2022/05/02 02:39:58;;;;;;;;;;;10.10;77.20;;;;;;5087399;28;19928;-68
2022/05/02 02:42:24;;;;;;;;;;;10.10;77.00;;;;;;5074491;28;19916;-68
2022/05/02 02:44:50;;;;;;;;;;;10.10;77.20;;;;;;5087677;28;20334;-68
2022/05/02 02:47:15;;;;;;;;;;;10.10;77.20;;;;;;5071671;28;19912;-69
2022/05/02 02:49:41;;;;;;;;;;;10.10;77.30;;;;;;5083351;28;20003;-69
2022/05/02 02:52:08;;;;;;;;;;;10.10;77.20;;;;;;5075726;28;19919;-68
2022/05/02 02:54:34;;;;;;;;;;;10.10;77.30;;;;;;5079329;28;20439;-69
2022/05/02 02:56:59;;;;;;;;;;;10.10;77.20;;;;;;5074769;28;19923;-68
2022/05/02 02:59:25;;;;;;;;;;;10.10;77.30;;;;;;5075637;28;20260;-69
2022/05/02 03:01:50;;;;;;;;;;;10.10;77.40;;;;;;5078418;28;20613;-68
2022/05/02 03:07:00;;;;;;;;;;;10.10;77.40;;;;;;5084264;28;20312;-69
2022/05/02 03:09:25;;;;;;;;;;;10.00;77.30;;;;;;5068362;28;19947;-68
2022/05/02 03:11:51;;;;;;;;;;;10.00;77.40;;;;;;5081253;28;19913;-68
2022/05/02 03:14:16;;;;;;;;;;;10.00;77.30;;;;;;5076514;28;19965;-68
2022/05/02 03:16:42;;;;;;;;;;;10.00;77.50;;;;;;5086010;28;19912;-68
2022/05/02 03:19:07;;;;;;;;;;;10.00;77.50;;;;;;5072288;28;20539;-68
2022/05/02 03:21:33;;;;;;;;;;;10.00;77.40;;;;;;5080612;28;19919;-68
2022/05/02 03:23:58;;;;;;;;;;;10.00;77.50;;;;;;5073295;28;19921;-69
2022/05/02 03:26:24;;;;;;;;;;;10.00;77.50;;;;;;5084933;28;19912;-68
2022/05/02 03:28:49;;;;;;;;;;;10.00;77.60;;;;;;5072852;28;19952;-68
2022/05/02 03:31:15;;;;;;;;;;;9.90;77.60;;;;;;5078323;28;19916;-68
2022/05/02 03:33:41;;;;;;;;;;;9.90;77.60;;;;;;5079956;28;20003;-68
2022/05/02 03:36:06;;;;;;;;;;;9.90;77.60;;;;;;5072141;28;20011;-68
2022/05/02 03:38:32;;;;;;;;;;;9.90;77.70;;;;;;5072712;28;20007;-68
2022/05/02 03:40:57;;;;;;;;;;;9.90;77.70;;;;;;5077437;28;20658;-68
2022/05/02 03:43:23;;;;;;;;;;;9.90;77.70;;;;;;5083852;28;19946;-68
2022/05/02 03:45:48;;;;;;;;;;;9.80;77.70;;;;;;5076051;28;20347;-68
2022/05/02 03:48:14;;;;;;;;;;;9.80;77.70;;;;;;5076963;28;19919;-69
2022/05/02 03:50:39;;;;;;;;;;;9.80;77.70;;;;;;5009849;28;1848252;-68
2022/05/02 03:53:05;;;;;;;;;;;9.80;77.70;;;;;;5089226;28;19924;-68
2022/05/02 03:55:30;;;;;;;;;;;9.80;77.80;;;;;;5074572;28;19938;-69
2022/05/02 03:57:56;;;;;;;;;;;9.80;77.80;;;;;;5082811;28;20284;-68
2022/05/02 04:00:21;;;;;;;;;;;9.80;77.70;;;;;;5072906;28;19920;-68
2022/05/02 04:02:47;;;;;;;;;;;9.80;77.70;;;;;;5076307;28;19916;-68
2022/05/02 04:05:12;;;;;;;;;;;9.80;77.80;;;;;;5072948;28;19909;-69
2022/05/02 04:07:38;;;;;;;;;;;9.70;77.80;;;;;;5076099;28;20648;-68
2022/05/02 04:10:04;;;;;;;;;;;9.70;77.70;;;;;;5074755;28;19912;-68
2022/05/02 04:12:37;;;;;;;;;;;9.70;77.70;;;;;;5074219;28;20507;-69
2022/05/02 04:15:03;;;;;;;;;;;9.70;77.70;;;;;;5080882;28;20416;-68
2022/05/02 04:17:28;;;;;;;;;;;9.70;77.70;;;;;;5077578;28;20125;-68
2022/05/02 04:19:54;;;;;;;;;;;9.70;77.90;;;;;;5070890;28;20260;-68
2022/05/02 04:22:19;;;;;;;;;;;9.70;77.80;;;;;;5073654;28;19920;-68
2022/05/02 04:24:45;;;;;;;;;;;9.70;77.80;;;;;;5076586;28;20732;-69
2022/05/02 04:27:10;;;;;;;;;;;9.70;77.70;;;;;;5076915;28;19916;-68
2022/05/02 04:29:36;;;;;;;;;;;9.60;77.70;;;;;;5082928;28;20350;-68
2022/05/02 04:32:01;;;;;;;;;;;9.60;77.70;;;;;;5074970;28;19922;-69
2022/05/02 04:34:27;;;;;;;;;;;9.60;77.70;;;;;;5077560;28;20365;-68
2022/05/02 04:36:52;;;;;;;;;;;9.60;77.80;;;;;;5073795;28;19908;-69
2022/05/02 04:39:18;;;;;;;;;;;9.60;77.90;;;;;;5086268;28;20262;-68
2022/05/02 04:41:43;;;;;;;;;;;9.60;77.90;;;;;;5073503;28;20314;-68
2022/05/02 04:44:08;;;;;;;;;;;9.60;77.80;;;;;;5073702;28;19966;-68
2022/05/02 04:46:34;;;;;;;;;;;9.60;77.90;;;;;;5078154;28;20412;-68
2022/05/02 04:49:00;;;;;;;;;;;9.60;77.90;;;;;;5072068;28;19916;-68
2022/05/02 04:51:25;;;;;;;;;;;9.60;77.90;;;;;;5078263;28;19916;-68
2022/05/02 04:53:50;;;;;;;;;;;9.60;77.90;;;;;;5070055;28;19916;-68
2022/05/02 04:56:16;;;;;;;;;;;9.60;77.80;;;;;;5079516;28;19912;-68
2022/05/02 04:58:41;;;;;;;;;;;9.60;77.90;;;;;;5071696;28;19916;-68
2022/05/02 05:01:07;;;;;;;;;;;9.50;77.80;;;;;;5071935;28;19928;-68
2022/05/02 05:03:33;;;;;;;;;;;9.60;77.80;;;;;;5069294;28;19984;-68
2022/05/02 05:05:59;;;;;;;;;;;9.60;77.90;;;;;;5078532;28;19917;-68
2022/05/02 05:08:24;;;;;;;;;;;9.60;77.90;;;;;;5076514;28;19957;-68
2022/05/02 05:11:05;;;;;;;;;;;9.60;77.90;;;;;;5077680;28;20653;-68
2022/05/02 05:13:37;;;;;;;;;;;9.60;77.80;;;;;;5072243;28;19930;-68
2022/05/02 05:16:21;;;;;;;;;;;9.60;77.90;;;;;;5087226;28;19912;-68
2022/05/02 05:18:50;;;;;;;;;;;9.60;77.70;;;;;;5078624;28;19951;-68
2022/05/02 05:21:15;;;;;;;;;;;9.60;78.00;;;;;;5083769;28;19959;-68
2022/05/02 05:23:41;;;;;;;;;;;9.60;77.80;;;;;;5069552;28;19921;-68
2022/05/02 05:26:07;;;;;;;;;;;9.60;77.70;;;;;;5077521;28;19912;-68
2022/05/02 05:28:32;;;;;;;;;;;9.60;77.90;;;;;;5086071;28;19912;-68
2022/05/02 05:31:18;;;;;;;;;;;9.50;77.80;;;;;;5070709;28;20393;-68
2022/05/02 05:33:44;;;;;;;;;;;9.60;77.80;;;;;;5080109;28;19992;-68
2022/05/02 05:36:27;;;;;;;;;;;9.60;77.90;;;;;;5077275;28;19942;-68
2022/05/02 05:38:55;;;;;;;;;;;9.60;77.90;;;;;;5068126;28;20246;-68
2022/05/02 05:41:29;;;;;;;;;;;9.60;77.90;;;;;;5082446;28;20020;-68
2022/05/02 05:43:54;;;;;;;;;;;9.60;77.80;;;;;;5076041;28;20026;-68
2022/05/02 05:46:39;;;;;;;;;;;9.70;77.90;;;;;;5069505;28;19920;-68
2022/05/02 05:49:13;;;;;;;;;;;9.70;77.90;;;;;;5079541;28;19924;-68
2022/05/02 05:51:39;;;;;;;;;;;9.70;77.80;;;;;;5078058;28;20437;-68
2022/05/02 05:54:30;;;;;;;;;;;9.70;77.70;;;;;;5081905;28;19939;-68
2022/05/02 05:57:14;;;;;;;;;;;9.80;77.70;;;;;;5076266;28;20010;-68
2022/05/02 06:00:00;;;;;;;;;;;9.80;77.70;;;;;;5077946;28;19916;-68
2022/05/02 06:02:29;;;;;;;;;;;9.80;77.60;;;;;;5088590;28;19916;-68
2022/05/02 06:04:57;;;;;;;;;;;9.90;77.70;;;;;;5072039;28;19920;-68
2022/05/02 06:07:22;;;;;;;;;;;9.90;77.50;;;;;;5081670;28;20118;-68
2022/05/02 06:09:48;;;;;;;;;;;9.90;77.60;;;;;;5076598;28;20011;-68
2022/05/02 06:12:15;;;;;;;;;;;9.90;77.50;;;;;;5076065;28;19977;-68
2022/05/02 06:20:13;;;;;;;;;;;10.00;77.40;;;;;;5082020;28;19927;-68
2022/05/02 06:22:40;;;;;;;;;;;10.00;77.50;;;;;;5078007;28;19955;-68
2022/05/02 06:25:06;;;;;;;;;;;10.00;77.30;;;;;;5080067;28;19919;-68
2022/05/02 06:27:32;;;;;;;;;;;10.00;77.30;;;;;;5074043;28;19930;-68
2022/05/02 06:29:59;;;;;;;;;;;10.10;77.30;;;;;;5080872;28;19916;-68
2022/05/02 06:32:25;;;;;;;;;;;10.10;77.20;;;;;;5069957;28;19923;-68
2022/05/02 06:34:51;;;;;;;;;;;10.10;77.20;;;;;;5081147;28;20387;-68
2022/05/02 06:37:22;;;;;;;;;;;10.20;77.20;;;;;;5074162;28;19916;-68
2022/05/02 06:40:02;;;;;;;;;;;10.20;77.10;;;;;;5084566;27;19952;-68
2022/05/02 06:42:50;;;;;;;;;;;10.20;77.20;;;;;;5074995;28;20250;-68
2022/05/02 06:45:19;;;;;;;;;;;10.20;77.10;;;;;;5082426;28;20308;-68
2022/05/02 06:48:09;;;;;;;;;;;10.20;77.20;;;;;;5077508;28;19912;-68
2022/05/02 06:50:36;;;;;;;;;;;10.20;77.20;;;;;;5077754;28;19920;-68
2022/05/02 06:53:11;;;;;;;;;;;10.20;77.10;;;;;;5074777;28;20323;-68
2022/05/02 06:55:55;;;;;;;;;;;10.30;77.10;;;;;;5072091;28;20381;-68
2022/05/02 06:58:40;;;;;;;;;;;10.30;76.90;;;;;;5076874;28;19924;-68
2022/05/02 07:01:08;;;;;;;;;;;10.30;76.90;;;;;;5074698;28;19920;-68
2022/05/02 07:03:40;;;;;;;;;;;10.40;76.90;;;;;;5076795;28;19916;-68
2022/05/02 07:06:08;;;;;;;;;;;10.40;76.80;;;;;;5082092;28;19912;-68
2022/05/02 07:09:04;;;;;;;;;;;10.50;76.80;;;;;;5078035;28;20352;-68
2022/05/02 07:11:48;;;;;;;;;;;10.50;76.60;;;;;;5066409;28;20325;-68
2022/05/02 07:14:21;;;;;;;;;;;10.60;76.50;;;;;;5073513;28;19954;-68
2022/05/02 07:16:53;;;;;;;;;;;10.60;76.30;;;;;;5084604;27;19958;-68
2022/05/02 07:19:22;;;;;;;;;;;10.70;76.20;;;;;;5084461;28;20429;-68
2022/05/02 07:22:00;;;;;;;;;;;10.70;76.10;;;;;;5083942;28;20649;-68
2022/05/02 07:24:32;;;;;;;;;;;10.80;76.00;;;;;;5082169;28;20373;-68
2022/05/02 07:27:06;;;;;;;;;;;10.80;76.00;;;;;;5081398;28;19916;-68
2022/05/02 07:29:33;;;;;;;;;;;10.90;75.90;;;;;;5077257;28;19920;-68
2022/05/02 07:32:00;;;;;;;;;;;10.90;75.80;;;;;;5084601;28;19908;-68
2022/05/02 07:34:26;;;;;;;;;;;10.90;75.90;;;;;;5075084;28;19939;-68
2022/05/02 07:36:52;;;;;;;;;;;11.00;75.70;;;;;;5080632;28;20420;-68
2022/05/02 07:39:19;;;;;;;;;;;11.00;75.50;;;;;;5073260;28;20045;-68
2022/05/02 07:41:46;;;;;;;;;;;11.10;75.40;;;;;;5082160;28;20019;-68
2022/05/02 07:44:15;;;;;;;;;;;11.10;75.40;;;;;;5079356;28;19920;-68
2022/05/02 07:46:45;;;;;;;;;;;11.10;75.50;;;;;;5077489;28;19908;-68
2022/05/02 07:49:13;;;;;;;;;;;11.20;75.20;;;;;;5076776;28;19927;-68
2022/05/02 07:51:51;;;;;;;;;;;11.20;75.20;;;;;;5088133;28;20014;-68
2022/05/02 07:54:25;;;;;;;;;;;11.30;75.00;;;;;;5075142;28;19913;-68
2022/05/02 07:56:51;;;;;;;;;;;11.40;74.90;;;;;;5082289;28;19924;-68
2022/05/02 07:59:18;;;;;;;;;;;11.40;74.90;;;;;;5075013;28;20007;-68
2022/05/02 08:01:44;;;;;;;;;;;11.50;74.80;;;;;;5084321;28;20505;-68
2022/05/02 08:04:13;;;;;;;;;;;11.50;74.80;;;;;;5082613;28;19920;-68
2022/05/02 08:06:38;;;;;;;;;;;11.60;74.70;;;;;;5076972;28;19913;-68
2022/05/02 08:09:17;;;;;;;;;;;11.60;74.50;;;;;;5081366;28;20019;-68
2022/05/02 08:12:02;;;;;;;;;;;11.60;74.50;;;;;;5075926;28;19995;-68
2022/05/02 08:14:39;;;;;;;;;;;11.70;74.50;;;;;;5073387;28;19924;-68
2022/05/02 08:17:16;;;;;;;;;;;11.70;74.40;;;;;;5077728;28;19958;-68
2022/05/02 08:19:58;;;;;;;;;;;11.70;74.50;;;;;;5085242;28;19962;-68
2022/05/02 08:28:36;;;;;;;;;;;11.70;74.40;;;;;;5077160;28;19921;-68
2022/05/02 08:31:07;;;;;;;;;;;11.80;74.40;;;;;;5063571;28;20618;-68
2022/05/02 08:33:34;;;;;;;;;;;11.80;74.30;;;;;;5078615;28;20520;-68
2022/05/02 08:36:25;;;;;;;;;;;11.80;74.20;;;;;;5077050;28;20357;-68
2022/05/02 08:39:02;;;;;;;;;;;11.80;74.20;;;;;;5086499;28;19993;-68
2022/05/02 08:41:31;;;;;;;;;;;11.80;74.10;;;;;;5073085;28;19924;-68
2022/05/02 08:44:06;;;;;;;;;;;11.90;74.10;;;;;;5076282;28;20000;-68
2022/05/02 08:46:51;;;;;;;;;;;11.90;74.00;;;;;;5073379;28;19981;-68
2022/05/02 08:49:36;;;;;;;;;;;11.90;73.90;;;;;;5052830;28;19920;-68
2022/05/02 08:52:02;;;;;;;;;;;12.00;73.90;;;;;;5075953;28;19916;-68
2022/05/02 08:54:27;;;;;;;;;;;12.00;73.90;;;;;;5082770;28;19915;-68
2022/05/02 08:57:09;;;;;;;;;;;12.00;74.00;;;;;;5075315;28;20276;-68
2022/05/02 08:59:43;;;;;;;;;;;12.00;74.00;;;;;;5076298;28;19916;-68
2022/05/02 09:02:27;;;;;;;;;;;12.10;73.90;;;;;;5073440;28;20023;-68
2022/05/02 09:05:05;;;;;;;;;;;12.10;74.10;;;;;;5084745;28;20235;-68
2022/05/02 09:07:50;;;;;;;;;;;12.20;73.90;;;;;;5078371;28;20611;-68
2022/05/02 09:10:20;;;;;;;;;;;12.20;73.80;;;;;;5080916;28;19916;-68
2022/05/02 09:12:52;;;;;;;;;;;12.20;73.70;;;;;;5070441;28;19927;-68
2022/05/02 09:15:29;;;;;;;;;;;12.30;74.40;;;;;;5088070;28;20230;-68
2022/05/02 09:18:13;;;;;;;;;;;12.30;73.80;;;;;;5077645;28;20442;-68
2022/05/02 09:20:58;;;;;;;;;;;12.40;73.70;;;;;;5080047;28;20014;-68
2022/05/02 09:23:29;;;;;;;;;;;12.40;73.60;;;;;;5071333;28;19920;-68
2022/05/02 09:25:57;;;;;;;;;;;12.50;73.30;;;;;;5078106;28;19909;-68
2022/05/02 09:28:26;;;;;;;;;;;12.50;73.30;;;;;;5073906;28;19966;-68
2022/05/02 09:31:11;;;;;;;;;;;12.50;73.10;;;;;;5080407;27;20401;-68
2022/05/02 09:33:36;;;;;;;;;;;12.60;72.90;;;;;;5077419;28;19916;-68
2022/05/02 09:36:19;;;;;;;;;;;12.60;73.10;;;;;;5074332;28;20383;-68
2022/05/02 09:38:48;;;;;;;;;;;12.70;73.00;;;;;;5077906;28;19916;-68
2022/05/02 09:41:14;;;;;;;;;;;12.70;72.80;;;;;;5077444;28;20002;-68
2022/05/02 09:52:14;;;;;;;;;;;12.90;72.40;;;;;;5084716;28;19912;-68
2022/05/02 09:57:49;;;;;;;;;;;13.10;72.30;;;;;;5077637;28;20014;-68
2022/05/02 10:03:20;;;;;;;;;;;13.20;72.10;;;;;;5073225;28;19990;-68
2022/05/02 10:05:49;;;;;;;;;;;13.20;72.20;;;;;;5078217;28;19924;-68
2022/05/02 10:08:33;;;;;;;;;;;13.30;72.40;;;;;;5080348;28;19915;-68
2022/05/02 10:10:59;;;;;;;;;;;13.40;72.00;;;;;;5079663;28;19924;-68
2022/05/02 10:13:30;;;;;;;;;;;13.40;71.80;;;;;;5080205;28;19932;-68
2022/05/02 10:16:09;;;;;;;;;;;13.50;71.80;;;;;;5076299;28;19916;-68
2022/05/02 10:18:56;;;;;;;;;;;13.50;71.40;;;;;;5081630;28;19936;-68
2022/05/02 10:21:22;;;;;;;;;;;13.60;71.80;;;;;;5078139;28;19920;-68
2022/05/02 10:24:07;;;;;;;;;;;13.70;71.70;;;;;;5074496;28;19915;-68
2022/05/02 10:26:41;;;;;;;;;;;13.80;71.60;;;;;;5078757;28;19930;-68
2022/05/02 10:29:25;;;;;;;;;;;13.80;71.50;;;;;;5076958;28;19962;-68
2022/05/02 10:32:00;;;;;;;;;;;13.90;71.60;;;;;;5073732;28;19916;-68
2022/05/02 10:34:27;;;;;;;;;;;14.00;71.90;;;;;;5080893;28;19912;-68
2022/05/02 10:36:53;;;;;;;;;;;14.10;72.20;;;;;;5079484;28;19927;-68
2022/05/02 10:39:38;;;;;;;;;;;14.20;72.00;;;;;;5084234;28;20547;-68
2022/05/02 10:42:06;;;;;;;;;;;14.30;72.20;;;;;;5081287;28;20073;-68
2022/05/02 10:45:04;;;;;;;;;;;14.40;72.00;;;;;;5082975;28;20254;-68
2022/05/02 10:47:44;;;;;;;;;;;14.50;72.30;;;;;;5067562;28;19921;-68
2022/05/02 10:50:26;;;;;;;;;;;14.60;72.70;;;;;;5079954;28;19920;-68
2022/05/02 10:53:08;;;;;;;;;;;14.70;72.30;;;;;;5076965;28;19960;-68
2022/05/02 10:55:37;;;;;;;;;;;14.80;72.20;;;;;;5079140;28;19919;-68
2022/05/02 10:58:04;;;;;;;;;;;15.00;71.90;;;;;;5076947;28;19912;-68
2022/05/02 11:00:30;;;;;;;;;;;15.10;72.10;;;;;;5082141;28;20048;-68
2022/05/02 11:02:58;;;;;;;;;;;15.20;71.90;;;;;;5076814;28;20002;-68
2022/05/02 11:05:25;;;;;;;;;;;15.40;72.10;;;;;;5077229;28;19919;-67
2022/05/02 11:08:10;;;;;;;;;;;15.50;71.80;;;;;;5075679;28;20361;-68
2022/05/02 11:10:42;;;;;;;;;;;15.60;71.60;;;;;;5083967;28;19968;-67
2022/05/02 11:13:23;;;;;;;;;;;15.70;71.50;;;;;;5080998;28;19973;-68
2022/05/02 11:16:07;;;;;;;;;;;15.80;71.40;;;;;;5079963;28;19912;-68
2022/05/02 11:21:36;;;;;;;;;;;16.10;71.10;;;;;;5071861;28;20648;-67
2022/05/02 11:24:16;;;;;;;;;;;16.20;71.00;;;;;;5086740;28;19908;-68
2022/05/02 11:26:46;;;;;;;;;;;16.20;71.10;;;;;;5078612;28;19916;-68
2022/05/02 11:29:29;;;;;;;;;;;16.30;71.40;;;;;;5078884;28;19908;-68
2022/05/02 11:31:54;;;;;;;;;;;16.40;71.50;;;;;;5084203;28;19916;-68
2022/05/02 11:34:39;;;;;;;;;;;16.50;71.30;;;;;;5076784;28;20285;-68
2022/05/02 11:37:07;;;;;;;;;;;16.60;71.00;;;;;;5076133;28;19916;-68
2022/05/02 11:39:35;;;;;;;;;;;16.70;71.00;;;;;;5081658;28;20011;-68
2022/05/02 11:42:05;;;;;;;;;;;16.80;71.10;;;;;;5077590;28;19912;-68
2022/05/02 11:44:32;;;;;;;;;;;16.90;70.70;;;;;;5079221;28;19912;-68
2022/05/02 11:47:00;;;;;;;;;;;17.00;70.70;;;;;;5079101;28;19912;-68
2022/05/02 11:49:49;;;;;;;;;;;17.00;70.70;;;;;;5080970;28;20362;-67
2022/05/02 11:52:27;;;;;;;;;;;17.10;70.80;;;;;;5095539;28;20243;-68
2022/05/02 11:54:56;;;;;;;;;;;17.20;70.70;;;;;;5072114;28;20007;-68
2022/05/02 11:57:31;;;;;;;;;;;17.30;70.60;;;;;;5088994;28;20010;-68
2022/05/02 11:59:57;;;;;;;;;;;17.40;70.40;;;;;;5082163;28;19927;-68
2022/05/02 12:02:26;;;;;;;;;;;17.50;70.50;;;;;;5079722;28;19908;-68
2022/05/02 12:04:52;;;;;;;;;;;17.60;70.40;;;;;;5082616;28;19956;-67
2022/05/02 12:07:22;;;;;;;;;;;17.70;70.50;;;;;;5079679;28;20345;-68
2022/05/02 12:09:47;;;;;;;;;;;17.70;70.40;;;;;;5077492;28;19916;-68
2022/05/02 12:12:13;;;;;;;;;;;17.80;70.40;;;;;;5078996;28;19909;-68
2022/05/02 12:14:39;;;;;;;;;;;17.90;70.10;;;;;;5071692;28;19920;-68
2022/05/02 12:17:09;;;;;;;;;;;17.90;70.10;;;;;;5072380;28;19913;-68
2022/05/02 12:19:36;;;;;;;;;;;18.00;70.00;;;;;;5083172;28;19909;-68
2022/05/02 12:22:03;;;;;;;;;;;18.10;69.90;;;;;;5078721;28;20277;-68
2022/05/02 12:24:32;;;;;;;;;;;18.10;69.80;;;;;;5076017;28;19919;-68
2022/05/02 12:26:57;;;;;;;;;;;18.20;69.90;;;;;;5070736;28;20326;-68
2022/05/02 12:29:24;;;;;;;;;;;18.30;69.70;;;;;;5086730;28;19994;-68
2022/05/02 12:31:53;;;;;;;;;;;18.40;69.80;;;;;;5078379;28;20037;-68
2022/05/02 12:34:19;;;;;;;;;;;18.50;69.60;;;;;;5082223;28;20070;-68
2022/05/02 12:36:45;;;;;;;;;;;18.50;69.30;;;;;;5076500;28;20445;-68
2022/05/02 12:39:26;;;;;;;;;;;18.60;69.30;;;;;;5074434;28;19912;-68
2022/05/02 12:41:54;;;;;;;;;;;18.70;69.10;;;;;;5073470;28;20387;-68
2022/05/02 12:44:24;;;;;;;;;;;18.80;68.90;;;;;;5079358;28;19916;-68
2022/05/02 12:46:52;;;;;;;;;;;18.90;68.80;;;;;;5076858;28;19938;-68
2022/05/02 12:49:20;;;;;;;;;;;19.00;69.20;;;;;;5079980;28;19920;-68
2022/05/02 12:51:52;;;;;;;;;;;19.00;68.30;;;;;;5083185;28;19919;-68
2022/05/02 12:54:18;;;;;;;;;;;19.10;68.40;;;;;;5077320;28;20369;-68
2022/05/02 13:02:43;;;;;;;;;;;19.40;67.60;;;;;;5076608;28;20284;-68
2022/05/02 13:05:10;;;;;;;;;;;19.50;67.50;;;;;;5075284;28;20071;-68
2022/05/02 13:07:44;;;;;;;;;;;19.40;67.30;;;;;;5068123;28;19947;-68
2022/05/02 13:10:27;;;;;;;;;;;19.40;67.40;;;;;;5076095;28;19959;-68
2022/05/02 13:12:58;;;;;;;;;;;19.40;67.60;;;;;;5078878;28;20326;-68
2022/05/02 13:15:27;;;;;;;;;;;19.40;67.80;;;;;;5076327;28;19912;-68
2022/05/02 13:17:57;;;;;;;;;;;19.50;67.90;;;;;;5079928;28;19934;-68
2022/05/02 13:20:24;;;;;;;;;;;19.50;68.00;;;;;;5081318;28;20424;-68
2022/05/02 13:23:00;;;;;;;;;;;19.50;68.00;;;;;;5072938;28;19917;-68
2022/05/02 13:25:45;;;;;;;;;;;19.40;67.60;;;;;;5081019;28;19912;-68
2022/05/02 13:28:15;;;;;;;;;;;19.50;67.40;;;;;;5074884;28;19923;-68
2022/05/02 13:30:42;;;;;;;;;;;19.40;68.00;;;;;;5075156;28;19917;-68
2022/05/02 13:33:10;;;;;;;;;;;19.40;67.40;;;;;;5072849;28;20452;-68
2022/05/02 13:35:36;;;;;;;;;;;19.40;67.10;;;;;;5076882;28;19942;-68
2022/05/02 13:38:08;;;;;;;;;;;19.30;67.30;;;;;;5069740;28;19912;-69
2022/05/02 13:40:52;;;;;;;;;;;19.30;67.30;;;;;;5078538;28;19943;-69
2022/05/02 13:43:25;;;;;;;;;;;19.30;67.00;;;;;;5076726;28;20304;-68
2022/05/02 13:46:00;;;;;;;;;;;19.20;66.80;;;;;;5075228;28;19916;-69
2022/05/02 13:48:26;;;;;;;;;;;19.20;66.50;;;;;;5078525;28;19912;-68
2022/05/02 13:51:00;;;;;;;;;;;19.20;66.60;;;;;;5073447;28;20289;-69
2022/05/02 13:53:36;;;;;;;;;;;19.20;66.30;;;;;;5076416;28;20009;-68
2022/05/02 13:56:20;;;;;;;;;;;19.20;65.90;;;;;;5087355;28;20369;-69
2022/05/02 13:59:04;;;;;;;;;;;19.20;66.10;;;;;;5076548;28;19916;-69
2022/05/02 14:01:48;;;;;;;;;;;19.20;66.20;;;;;;5085412;28;19923;-69
2022/05/02 14:04:24;;;;;;;;;;;19.30;66.60;;;;;;5079489;28;19969;-69
2022/05/02 14:07:05;;;;;;;;;;;19.40;66.90;;;;;;5080736;28;19944;-69
2022/05/02 14:09:47;;;;;;;;;;;19.40;67.10;;;;;;5077040;28;19931;-69
2022/05/02 14:12:18;;;;;;;;;;;19.40;65.80;;;;;;5089871;28;19916;-68
2022/05/02 14:14:56;;;;;;;;;;;19.40;65.20;;;;;;5085118;28;19916;-69
2022/05/02 14:17:49;;;;;;;;;;;19.40;66.30;;;;;;5081924;28;19908;-68
2022/05/02 14:20:23;;;;;;;;;;;19.50;65.60;;;;;;5074757;28;19982;-70
2022/05/02 14:22:55;;;;;;;;;;;19.60;62.80;;;;;;5080670;28;19912;-68
2022/05/02 14:25:25;;;;;;;;;;;19.60;62.40;;;;;;5076598;28;19920;-70
2022/05/02 14:27:53;;;;;;;;;;;19.60;63.10;;;;;;5085331;28;20361;-70
2022/05/02 14:30:24;;;;;;;;;;;19.50;63.40;;;;;;5079976;28;19924;-70
2022/05/02 14:32:50;;;;;;;;;;;19.50;63.90;;;;;;5094030;28;20563;-70
2022/05/02 14:35:24;;;;;;;;;;;19.60;64.70;;;;;;5080298;28;19970;-70
2022/05/02 14:37:51;;;;;;;;;;;19.70;64.10;;;;;;5082112;28;20360;-71
2022/05/02 14:40:17;;;;;;;;;;;19.90;58.80;;;;;;5075693;28;19924;-70
2022/05/02 14:42:42;;;;;;;;;;;19.90;58.40;;;;;;5079304;28;20402;-71
2022/05/02 14:45:10;;;;;;;;;;;19.80;59.20;;;;;;5078948;28;20007;-71
2022/05/02 14:47:36;;;;;;;;;;;19.80;61.40;;;;;;5084239;28;19912;-70
2022/05/02 14:50:02;;;;;;;;;;;19.70;62.00;;;;;;5077471;28;19938;-70
2022/05/02 14:52:34;;;;;;;;;;;19.60;63.30;;;;;;5078671;28;19924;-70
2022/05/02 14:55:01;;;;;;;;;;;19.70;63.30;;;;;;5076865;28;20303;-71
2022/05/02 14:57:29;;;;;;;;;;;19.70;60.20;;;;;;5078710;28;19939;-71
2022/05/02 14:59:55;;;;;;;;;;;19.80;59.60;;;;;;5076044;28;19924;-71
2022/05/02 15:02:23;;;;;;;;;;;20.00;57.40;;;;;;5082243;28;20365;-72
2022/05/02 15:04:51;;;;;;;;;;;20.30;55.70;;;;;;5074090;28;19916;-71
2022/05/02 15:07:20;;;;;;;;;;;20.50;56.10;;;;;;5088827;28;20426;-71
2022/05/02 15:12:42;;;;;;;;;;;20.90;55.60;;;;;;5075281;28;20285;-71
2022/05/02 15:15:24;;;;;;;;;;;21.10;54.60;;;;;;5076684;28;19977;-71
2022/05/02 15:18:16;;;;;;;;;;;21.30;54.40;;;;;;5084252;28;20416;-71